sensor_id;sensor_type;location;lat;lon;timestamp;P1;durP1;ratioP1;P2;durP2;ratioP2
59922;SDS011;45778;51.142;3.732;2024-01-25T00:01:16;30.42;;;5.10;;
59922;SDS011;45778;51.142;3.732;2024-01-25T00:03:42;22.48;;;4.22;;
59922;SDS011;45778;51.142;3.732;2024-01-25T00:06:08;26.13;;;4.75;;
59922;SDS011;45778;51.142;3.732;2024-01-25T00:08:34;23.83;;;5.22;;
59922;SDS011;45778;51.142;3.732;2024-01-25T00:11:01;37.00;;;5.15;;
59922;SDS011;45778;51.142;3.732;2024-01-25T00:13:27;30.58;;;3.78;;
59922;SDS011;45778;51.142;3.732;2024-01-25T00:15:52;38.17;;;4.22;;
59922;SDS011;45778;51.142;3.732;2024-01-25T00:18:18;30.40;;;4.68;;
59922;SDS011;45778;51.142;3.732;2024-01-25T00:20:44;40.55;;;4.88;;
59922;SDS011;45778;51.142;3.732;2024-01-25T00:23:09;31.92;;;4.25;;
59922;SDS011;45778;51.142;3.732;2024-01-25T00:25:35;37.17;;;5.05;;
59922;SDS011;45778;51.142;3.732;2024-01-25T00:28:00;34.42;;;5.03;;
59922;SDS011;45778;51.142;3.732;2024-01-25T00:30:26;25.33;;;5.72;;
59922;SDS011;45778;51.142;3.732;2024-01-25T00:32:52;37.95;;;4.65;;
59922;SDS011;45778;51.142;3.732;2024-01-25T00:35:17;31.70;;;6.05;;
59922;SDS011;45778;51.142;3.732;2024-01-25T00:37:43;26.13;;;4.82;;
59922;SDS011;45778;51.142;3.732;2024-01-25T00:40:09;26.85;;;4.95;;
59922;SDS011;45778;51.142;3.732;2024-01-25T00:42:41;29.05;;;4.75;;
59922;SDS011;45778;51.142;3.732;2024-01-25T00:45:08;26.05;;;5.15;;
59922;SDS011;45778;51.142;3.732;2024-01-25T00:47:34;28.23;;;4.93;;
59922;SDS011;45778;51.142;3.732;2024-01-25T00:50:00;30.02;;;5.35;;
59922;SDS011;45778;51.142;3.732;2024-01-25T00:52:26;28.63;;;6.20;;
59922;SDS011;45778;51.142;3.732;2024-01-25T00:54:52;39.60;;;5.40;;
59922;SDS011;45778;51.142;3.732;2024-01-25T00:57:18;30.95;;;5.03;;
59922;SDS011;45778;51.142;3.732;2024-01-25T00:59:44;29.45;;;4.97;;
59922;SDS011;45778;51.142;3.732;2024-01-25T01:02:11;23.15;;;4.45;;
59922;SDS011;45778;51.142;3.732;2024-01-25T01:04:38;29.23;;;4.32;;
59922;SDS011;45778;51.142;3.732;2024-01-25T01:07:04;38.08;;;5.72;;
59922;SDS011;45778;51.142;3.732;2024-01-25T01:09:30;27.35;;;4.75;;
59922;SDS011;45778;51.142;3.732;2024-01-25T01:11:56;29.95;;;4.47;;
59922;SDS011;45778;51.142;3.732;2024-01-25T01:14:21;30.58;;;4.60;;
59922;SDS011;45778;51.142;3.732;2024-01-25T01:16:47;31.92;;;5.88;;
59922;SDS011;45778;51.142;3.732;2024-01-25T01:19:13;35.42;;;4.90;;
59922;SDS011;45778;51.142;3.732;2024-01-25T01:21:38;27.25;;;5.68;;
59922;SDS011;45778;51.142;3.732;2024-01-25T01:24:08;36.97;;;5.68;;
59922;SDS011;45778;51.142;3.732;2024-01-25T01:26:38;46.75;;;5.65;;
59922;SDS011;45778;51.142;3.732;2024-01-25T01:29:03;23.50;;;4.68;;
59922;SDS011;45778;51.142;3.732;2024-01-25T01:31:29;35.60;;;5.63;;
59922;SDS011;45778;51.142;3.732;2024-01-25T01:33:55;34.35;;;4.55;;
59922;SDS011;45778;51.142;3.732;2024-01-25T01:36:20;43.30;;;5.18;;
59922;SDS011;45778;51.142;3.732;2024-01-25T01:38:49;39.70;;;5.35;;
59922;SDS011;45778;51.142;3.732;2024-01-25T01:41:15;22.15;;;4.57;;
59922;SDS011;45778;51.142;3.732;2024-01-25T01:43:40;30.48;;;5.22;;
59922;SDS011;45778;51.142;3.732;2024-01-25T01:46:10;39.60;;;5.82;;
59922;SDS011;45778;51.142;3.732;2024-01-25T01:48:41;34.45;;;5.53;;
59922;SDS011;45778;51.142;3.732;2024-01-25T01:51:07;36.85;;;5.45;;
59922;SDS011;45778;51.142;3.732;2024-01-25T01:53:33;26.38;;;4.22;;
59922;SDS011;45778;51.142;3.732;2024-01-25T01:56:00;35.42;;;6.18;;
59922;SDS011;45778;51.142;3.732;2024-01-25T01:58:26;28.98;;;5.28;;
59922;SDS011;45778;51.142;3.732;2024-01-25T02:00:53;38.13;;;4.50;;
59922;SDS011;45778;51.142;3.732;2024-01-25T02:03:20;32.28;;;5.82;;
59922;SDS011;45778;51.142;3.732;2024-01-25T02:05:46;41.72;;;5.70;;
59922;SDS011;45778;51.142;3.732;2024-01-25T02:08:12;38.13;;;5.43;;
59922;SDS011;45778;51.142;3.732;2024-01-25T02:10:38;31.20;;;5.18;;
59922;SDS011;45778;51.142;3.732;2024-01-25T02:13:03;28.98;;;5.03;;
59922;SDS011;45778;51.142;3.732;2024-01-25T02:15:29;26.17;;;5.95;;
59922;SDS011;45778;51.142;3.732;2024-01-25T02:17:55;26.80;;;5.10;;
59922;SDS011;45778;51.142;3.732;2024-01-25T02:20:21;34.83;;;5.22;;
59922;SDS011;45778;51.142;3.732;2024-01-25T02:22:46;23.80;;;4.35;;
59922;SDS011;45778;51.142;3.732;2024-01-25T02:25:12;35.45;;;5.43;;
59922;SDS011;45778;51.142;3.732;2024-01-25T02:27:38;37.47;;;5.38;;
59922;SDS011;45778;51.142;3.732;2024-01-25T02:30:07;37.25;;;5.75;;
59922;SDS011;45778;51.142;3.732;2024-01-25T02:32:33;41.80;;;5.97;;
59922;SDS011;45778;51.142;3.732;2024-01-25T02:34:59;30.40;;;5.30;;
59922;SDS011;45778;51.142;3.732;2024-01-25T02:37:25;25.08;;;4.00;;
59922;SDS011;45778;51.142;3.732;2024-01-25T02:39:51;30.58;;;5.30;;
59922;SDS011;45778;51.142;3.732;2024-01-25T02:42:17;36.67;;;4.97;;
59922;SDS011;45778;51.142;3.732;2024-01-25T02:44:43;43.20;;;4.97;;
59922;SDS011;45778;51.142;3.732;2024-01-25T02:47:09;34.17;;;5.28;;
59922;SDS011;45778;51.142;3.732;2024-01-25T02:49:35;32.75;;;5.05;;
59922;SDS011;45778;51.142;3.732;2024-01-25T02:52:00;26.92;;;4.95;;
59922;SDS011;45778;51.142;3.732;2024-01-25T02:54:26;35.03;;;4.68;;
59922;SDS011;45778;51.142;3.732;2024-01-25T02:56:52;25.08;;;5.53;;
59922;SDS011;45778;51.142;3.732;2024-01-25T02:59:18;20.90;;;4.18;;
59922;SDS011;45778;51.142;3.732;2024-01-25T03:01:44;28.48;;;4.80;;
59922;SDS011;45778;51.142;3.732;2024-01-25T03:04:10;25.92;;;4.65;;
59922;SDS011;45778;51.142;3.732;2024-01-25T03:06:36;21.30;;;5.65;;
59922;SDS011;45778;51.142;3.732;2024-01-25T03:09:02;19.30;;;3.83;;
59922;SDS011;45778;51.142;3.732;2024-01-25T03:11:29;27.63;;;4.47;;
59922;SDS011;45778;51.142;3.732;2024-01-25T03:13:55;32.78;;;4.68;;
59922;SDS011;45778;51.142;3.732;2024-01-25T03:16:21;39.40;;;4.68;;
59922;SDS011;45778;51.142;3.732;2024-01-25T03:18:47;35.13;;;6.10;;
59922;SDS011;45778;51.142;3.732;2024-01-25T03:21:13;30.77;;;4.45;;
59922;SDS011;45778;51.142;3.732;2024-01-25T03:23:38;41.00;;;5.80;;
59922;SDS011;45778;51.142;3.732;2024-01-25T03:26:04;31.83;;;4.75;;
59922;SDS011;45778;51.142;3.732;2024-01-25T03:28:30;29.27;;;4.75;;
59922;SDS011;45778;51.142;3.732;2024-01-25T03:30:56;32.83;;;5.47;;
59922;SDS011;45778;51.142;3.732;2024-01-25T03:33:21;30.20;;;4.65;;
59922;SDS011;45778;51.142;3.732;2024-01-25T03:35:47;24.02;;;5.55;;
59922;SDS011;45778;51.142;3.732;2024-01-25T03:38:13;30.10;;;5.47;;
59922;SDS011;45778;51.142;3.732;2024-01-25T03:40:39;30.60;;;5.53;;
59922;SDS011;45778;51.142;3.732;2024-01-25T03:43:05;20.90;;;5.05;;
59922;SDS011;45778;51.142;3.732;2024-01-25T03:45:30;28.50;;;5.32;;
59922;SDS011;45778;51.142;3.732;2024-01-25T03:47:57;31.70;;;5.43;;
59922;SDS011;45778;51.142;3.732;2024-01-25T03:50:23;27.85;;;4.97;;
59922;SDS011;45778;51.142;3.732;2024-01-25T03:52:49;34.13;;;4.88;;
59922;SDS011;45778;51.142;3.732;2024-01-25T03:55:15;32.47;;;4.85;;
59922;SDS011;45778;51.142;3.732;2024-01-25T03:57:40;38.42;;;4.88;;
59922;SDS011;45778;51.142;3.732;2024-01-25T04:00:07;26.45;;;4.93;;
59922;SDS011;45778;51.142;3.732;2024-01-25T04:02:33;33.78;;;4.75;;
59922;SDS011;45778;51.142;3.732;2024-01-25T04:04:59;31.80;;;4.88;;
59922;SDS011;45778;51.142;3.732;2024-01-25T04:07:25;20.25;;;4.38;;
59922;SDS011;45778;51.142;3.732;2024-01-25T04:09:50;38.30;;;5.22;;
59922;SDS011;45778;51.142;3.732;2024-01-25T04:12:16;29.02;;;4.82;;
59922;SDS011;45778;51.142;3.732;2024-01-25T04:14:42;31.13;;;4.97;;
59922;SDS011;45778;51.142;3.732;2024-01-25T04:17:07;33.25;;;5.22;;
59922;SDS011;45778;51.142;3.732;2024-01-25T04:19:33;33.50;;;5.70;;
59922;SDS011;45778;51.142;3.732;2024-01-25T04:22:01;36.53;;;4.45;;
59922;SDS011;45778;51.142;3.732;2024-01-25T04:24:26;30.48;;;5.93;;
59922;SDS011;45778;51.142;3.732;2024-01-25T04:26:52;28.20;;;4.78;;
59922;SDS011;45778;51.142;3.732;2024-01-25T04:29:18;39.65;;;4.93;;
59922;SDS011;45778;51.142;3.732;2024-01-25T04:31:44;26.45;;;5.57;;
59922;SDS011;45778;51.142;3.732;2024-01-25T04:34:10;33.50;;;5.30;;
59922;SDS011;45778;51.142;3.732;2024-01-25T04:36:40;29.73;;;4.97;;
59922;SDS011;45778;51.142;3.732;2024-01-25T04:39:05;32.55;;;5.88;;
59922;SDS011;45778;51.142;3.732;2024-01-25T04:41:31;29.42;;;4.65;;
59922;SDS011;45778;51.142;3.732;2024-01-25T04:43:57;22.67;;;4.93;;
59922;SDS011;45778;51.142;3.732;2024-01-25T04:46:23;28.45;;;7.10;;
59922;SDS011;45778;51.142;3.732;2024-01-25T04:48:48;29.08;;;5.57;;
59922;SDS011;45778;51.142;3.732;2024-01-25T04:51:18;29.70;;;5.63;;
59922;SDS011;45778;51.142;3.732;2024-01-25T04:53:47;31.83;;;5.47;;
59922;SDS011;45778;51.142;3.732;2024-01-25T04:56:13;40.13;;;5.50;;
59922;SDS011;45778;51.142;3.732;2024-01-25T04:58:39;28.10;;;6.07;;
59922;SDS011;45778;51.142;3.732;2024-01-25T05:01:04;29.85;;;5.13;;
59922;SDS011;45778;51.142;3.732;2024-01-25T05:03:32;36.78;;;5.28;;
59922;SDS011;45778;51.142;3.732;2024-01-25T05:05:58;33.22;;;5.55;;
59922;SDS011;45778;51.142;3.732;2024-01-25T05:08:23;33.30;;;5.80;;
59922;SDS011;45778;51.142;3.732;2024-01-25T05:10:49;36.88;;;6.00;;
59922;SDS011;45778;51.142;3.732;2024-01-25T05:13:14;28.73;;;5.53;;
59922;SDS011;45778;51.142;3.732;2024-01-25T05:15:40;34.97;;;5.22;;
59922;SDS011;45778;51.142;3.732;2024-01-25T05:18:06;34.85;;;5.68;;
59922;SDS011;45778;51.142;3.732;2024-01-25T05:20:32;31.73;;;5.80;;
59922;SDS011;45778;51.142;3.732;2024-01-25T05:22:59;28.65;;;5.97;;
59922;SDS011;45778;51.142;3.732;2024-01-25T05:25:25;32.22;;;5.93;;
59922;SDS011;45778;51.142;3.732;2024-01-25T05:27:54;24.55;;;5.75;;
59922;SDS011;45778;51.142;3.732;2024-01-25T05:30:20;37.03;;;6.80;;
59922;SDS011;45778;51.142;3.732;2024-01-25T05:32:47;40.83;;;7.57;;
59922;SDS011;45778;51.142;3.732;2024-01-25T05:35:14;39.63;;;6.50;;
59922;SDS011;45778;51.142;3.732;2024-01-25T05:37:40;30.77;;;6.10;;
59922;SDS011;45778;51.142;3.732;2024-01-25T05:40:06;57.50;;;7.28;;
59922;SDS011;45778;51.142;3.732;2024-01-25T05:42:32;40.03;;;6.95;;
59922;SDS011;45778;51.142;3.732;2024-01-25T05:44:58;34.20;;;6.00;;
59922;SDS011;45778;51.142;3.732;2024-01-25T05:47:24;36.95;;;6.60;;
59922;SDS011;45778;51.142;3.732;2024-01-25T05:49:50;31.38;;;6.25;;
59922;SDS011;45778;51.142;3.732;2024-01-25T05:52:16;36.95;;;5.45;;
59922;SDS011;45778;51.142;3.732;2024-01-25T05:54:42;35.22;;;7.03;;
59922;SDS011;45778;51.142;3.732;2024-01-25T05:57:08;34.15;;;6.65;;
59922;SDS011;45778;51.142;3.732;2024-01-25T05:59:34;45.35;;;7.15;;
59922;SDS011;45778;51.142;3.732;2024-01-25T06:02:00;40.33;;;6.75;;
59922;SDS011;45778;51.142;3.732;2024-01-25T06:04:26;34.88;;;6.95;;
59922;SDS011;45778;51.142;3.732;2024-01-25T06:06:51;34.38;;;6.82;;
59922;SDS011;45778;51.142;3.732;2024-01-25T06:09:17;26.60;;;6.45;;
59922;SDS011;45778;51.142;3.732;2024-01-25T06:11:43;41.65;;;7.45;;
59922;SDS011;45778;51.142;3.732;2024-01-25T06:14:09;43.97;;;7.47;;
59922;SDS011;45778;51.142;3.732;2024-01-25T06:16:35;43.33;;;8.82;;
59922;SDS011;45778;51.142;3.732;2024-01-25T06:19:02;44.17;;;7.90;;
59922;SDS011;45778;51.142;3.732;2024-01-25T06:21:28;41.80;;;7.55;;
59922;SDS011;45778;51.142;3.732;2024-01-25T06:23:54;39.28;;;9.23;;
59922;SDS011;45778;51.142;3.732;2024-01-25T06:26:20;35.25;;;7.57;;
59922;SDS011;45778;51.142;3.732;2024-01-25T06:28:45;35.83;;;7.65;;
59922;SDS011;45778;51.142;3.732;2024-01-25T06:31:11;45.47;;;9.05;;
59922;SDS011;45778;51.142;3.732;2024-01-25T06:33:37;41.92;;;8.70;;
59922;SDS011;45778;51.142;3.732;2024-01-25T06:36:02;45.17;;;8.23;;
59922;SDS011;45778;51.142;3.732;2024-01-25T06:38:28;43.35;;;7.80;;
59922;SDS011;45778;51.142;3.732;2024-01-25T06:40:53;34.10;;;8.07;;
59922;SDS011;45778;51.142;3.732;2024-01-25T06:43:19;39.58;;;8.13;;
59922;SDS011;45778;51.142;3.732;2024-01-25T06:45:45;39.20;;;7.43;;
59922;SDS011;45778;51.142;3.732;2024-01-25T06:48:10;38.17;;;7.25;;
59922;SDS011;45778;51.142;3.732;2024-01-25T06:50:36;63.03;;;8.02;;
59922;SDS011;45778;51.142;3.732;2024-01-25T06:53:02;41.38;;;9.68;;
59922;SDS011;45778;51.142;3.732;2024-01-25T06:55:29;44.97;;;7.72;;
59922;SDS011;45778;51.142;3.732;2024-01-25T06:57:54;39.38;;;7.68;;
59922;SDS011;45778;51.142;3.732;2024-01-25T07:00:20;37.90;;;7.90;;
59922;SDS011;45778;51.142;3.732;2024-01-25T07:02:46;58.90;;;7.55;;
59922;SDS011;45778;51.142;3.732;2024-01-25T07:05:12;43.22;;;7.05;;
59922;SDS011;45778;51.142;3.732;2024-01-25T07:07:38;42.33;;;7.93;;
59922;SDS011;45778;51.142;3.732;2024-01-25T07:10:05;34.90;;;6.05;;
59922;SDS011;45778;51.142;3.732;2024-01-25T07:12:32;44.03;;;5.88;;
59922;SDS011;45778;51.142;3.732;2024-01-25T07:14:57;36.22;;;6.63;;
59922;SDS011;45778;51.142;3.732;2024-01-25T07:17:23;44.45;;;7.50;;
59922;SDS011;45778;51.142;3.732;2024-01-25T07:19:49;39.88;;;7.22;;
59922;SDS011;45778;51.142;3.732;2024-01-25T07:22:15;27.85;;;6.72;;
59922;SDS011;45778;51.142;3.732;2024-01-25T07:24:42;32.97;;;7.15;;
59922;SDS011;45778;51.142;3.732;2024-01-25T07:27:08;34.78;;;8.50;;
59922;SDS011;45778;51.142;3.732;2024-01-25T07:29:35;37.63;;;8.55;;
59922;SDS011;45778;51.142;3.732;2024-01-25T07:32:01;40.42;;;9.07;;
59922;SDS011;45778;51.142;3.732;2024-01-25T07:34:27;32.20;;;7.95;;
59922;SDS011;45778;51.142;3.732;2024-01-25T07:36:53;35.35;;;7.70;;
59922;SDS011;45778;51.142;3.732;2024-01-25T07:39:19;50.47;;;9.50;;
59922;SDS011;45778;51.142;3.732;2024-01-25T07:41:45;47.80;;;7.80;;
59922;SDS011;45778;51.142;3.732;2024-01-25T07:44:10;57.50;;;9.45;;
59922;SDS011;45778;51.142;3.732;2024-01-25T07:46:37;48.47;;;9.07;;
59922;SDS011;45778;51.142;3.732;2024-01-25T07:49:03;58.80;;;10.18;;
59922;SDS011;45778;51.142;3.732;2024-01-25T07:51:28;42.17;;;9.02;;
59922;SDS011;45778;51.142;3.732;2024-01-25T07:53:54;47.67;;;9.95;;
59922;SDS011;45778;51.142;3.732;2024-01-25T07:56:20;37.08;;;10.70;;
59922;SDS011;45778;51.142;3.732;2024-01-25T07:58:47;36.85;;;10.57;;
59922;SDS011;45778;51.142;3.732;2024-01-25T08:01:19;42.10;;;11.45;;
59922;SDS011;45778;51.142;3.732;2024-01-25T08:03:46;38.88;;;10.73;;
59922;SDS011;45778;51.142;3.732;2024-01-25T08:06:12;29.80;;;10.23;;
59922;SDS011;45778;51.142;3.732;2024-01-25T08:08:38;36.90;;;11.98;;
59922;SDS011;45778;51.142;3.732;2024-01-25T08:11:03;44.00;;;11.45;;
59922;SDS011;45778;51.142;3.732;2024-01-25T08:13:30;48.88;;;11.98;;
59922;SDS011;45778;51.142;3.732;2024-01-25T08:15:56;43.72;;;11.77;;
59922;SDS011;45778;51.142;3.732;2024-01-25T08:18:22;44.92;;;11.63;;
59922;SDS011;45778;51.142;3.732;2024-01-25T08:20:48;35.40;;;12.38;;
59922;SDS011;45778;51.142;3.732;2024-01-25T08:23:15;42.53;;;12.10;;
59922;SDS011;45778;51.142;3.732;2024-01-25T08:25:41;54.20;;;12.38;;
59922;SDS011;45778;51.142;3.732;2024-01-25T08:28:07;54.42;;;11.57;;
59922;SDS011;45778;51.142;3.732;2024-01-25T08:30:33;42.42;;;11.10;;
59922;SDS011;45778;51.142;3.732;2024-01-25T08:32:59;42.03;;;12.55;;
59922;SDS011;45778;51.142;3.732;2024-01-25T08:35:24;42.30;;;12.45;;
59922;SDS011;45778;51.142;3.732;2024-01-25T08:37:50;37.38;;;11.65;;
59922;SDS011;45778;51.142;3.732;2024-01-25T08:40:16;32.00;;;10.90;;
59922;SDS011;45778;51.142;3.732;2024-01-25T08:42:42;40.47;;;11.75;;
59922;SDS011;45778;51.142;3.732;2024-01-25T08:45:07;38.28;;;9.98;;
59922;SDS011;45778;51.142;3.732;2024-01-25T08:47:37;34.10;;;12.10;;
59922;SDS011;45778;51.142;3.732;2024-01-25T08:50:03;41.78;;;11.07;;
59922;SDS011;45778;51.142;3.732;2024-01-25T08:52:30;31.58;;;10.68;;
59922;SDS011;45778;51.142;3.732;2024-01-25T08:54:56;36.60;;;10.60;;
59922;SDS011;45778;51.142;3.732;2024-01-25T08:57:22;34.78;;;10.45;;
59922;SDS011;45778;51.142;3.732;2024-01-25T08:59:47;36.40;;;10.40;;
59922;SDS011;45778;51.142;3.732;2024-01-25T09:02:13;50.97;;;11.65;;
59922;SDS011;45778;51.142;3.732;2024-01-25T09:04:39;36.42;;;10.75;;
59922;SDS011;45778;51.142;3.732;2024-01-25T09:07:08;39.45;;;10.60;;
59922;SDS011;45778;51.142;3.732;2024-01-25T09:09:33;33.47;;;11.70;;
59922;SDS011;45778;51.142;3.732;2024-01-25T09:12:00;35.47;;;10.73;;
59922;SDS011;45778;51.142;3.732;2024-01-25T09:14:26;39.63;;;11.95;;
59922;SDS011;45778;51.142;3.732;2024-01-25T09:16:51;55.92;;;13.48;;
59922;SDS011;45778;51.142;3.732;2024-01-25T09:19:17;51.17;;;14.60;;
59922;SDS011;45778;51.142;3.732;2024-01-25T09:21:42;49.67;;;16.10;;
59922;SDS011;45778;51.142;3.732;2024-01-25T09:24:08;65.57;;;16.70;;
59922;SDS011;45778;51.142;3.732;2024-01-25T09:26:34;48.33;;;15.40;;
59922;SDS011;45778;51.142;3.732;2024-01-25T09:28:59;36.53;;;13.18;;
59922;SDS011;45778;51.142;3.732;2024-01-25T09:31:25;41.58;;;13.60;;
59922;SDS011;45778;51.142;3.732;2024-01-25T09:33:51;46.80;;;14.00;;
59922;SDS011;45778;51.142;3.732;2024-01-25T09:36:16;40.42;;;13.60;;
59922;SDS011;45778;51.142;3.732;2024-01-25T09:38:42;43.53;;;13.52;;
59922;SDS011;45778;51.142;3.732;2024-01-25T09:41:08;49.80;;;14.02;;
59922;SDS011;45778;51.142;3.732;2024-01-25T09:43:35;47.08;;;14.50;;
59922;SDS011;45778;51.142;3.732;2024-01-25T09:46:01;44.63;;;13.93;;
59922;SDS011;45778;51.142;3.732;2024-01-25T09:48:27;42.60;;;13.07;;
59922;SDS011;45778;51.142;3.732;2024-01-25T09:50:54;36.92;;;11.90;;
59922;SDS011;45778;51.142;3.732;2024-01-25T09:53:21;41.53;;;14.38;;
59922;SDS011;45778;51.142;3.732;2024-01-25T09:55:49;33.28;;;14.10;;
59922;SDS011;45778;51.142;3.732;2024-01-25T09:58:43;30.15;;;12.23;;
59922;SDS011;45778;51.142;3.732;2024-01-25T10:01:12;29.35;;;12.40;;
59922;SDS011;45778;51.142;3.732;2024-01-25T10:03:43;35.47;;;12.88;;
59922;SDS011;45778;51.142;3.732;2024-01-25T10:06:13;33.78;;;10.52;;
59922;SDS011;45778;51.142;3.732;2024-01-25T10:08:39;30.55;;;12.35;;
59922;SDS011;45778;51.142;3.732;2024-01-25T10:11:05;30.58;;;11.60;;
59922;SDS011;45778;51.142;3.732;2024-01-25T10:13:33;35.55;;;10.93;;
59922;SDS011;45778;51.142;3.732;2024-01-25T10:16:16;28.83;;;11.07;;
59922;SDS011;45778;51.142;3.732;2024-01-25T10:18:44;29.17;;;11.77;;
59922;SDS011;45778;51.142;3.732;2024-01-25T10:21:11;28.27;;;11.00;;
59922;SDS011;45778;51.142;3.732;2024-01-25T10:23:38;31.63;;;11.43;;
59922;SDS011;45778;51.142;3.732;2024-01-25T10:26:05;31.25;;;11.82;;
59922;SDS011;45778;51.142;3.732;2024-01-25T10:28:33;35.70;;;11.07;;
59922;SDS011;45778;51.142;3.732;2024-01-25T10:30:59;33.75;;;9.63;;
59922;SDS011;45778;51.142;3.732;2024-01-25T10:33:26;22.67;;;8.80;;
59922;SDS011;45778;51.142;3.732;2024-01-25T10:36:00;32.22;;;10.52;;
59922;SDS011;45778;51.142;3.732;2024-01-25T10:38:33;32.25;;;10.02;;
59922;SDS011;45778;51.142;3.732;2024-01-25T10:41:01;28.02;;;8.23;;
59922;SDS011;45778;51.142;3.732;2024-01-25T10:43:28;29.88;;;8.82;;
59922;SDS011;45778;51.142;3.732;2024-01-25T10:45:57;28.65;;;9.98;;
59922;SDS011;45778;51.142;3.732;2024-01-25T10:48:24;25.35;;;9.55;;
59922;SDS011;45778;51.142;3.732;2024-01-25T10:50:51;24.70;;;9.25;;
59922;SDS011;45778;51.142;3.732;2024-01-25T10:53:18;26.98;;;8.98;;
59922;SDS011;45778;51.142;3.732;2024-01-25T10:55:44;23.92;;;9.23;;
59922;SDS011;45778;51.142;3.732;2024-01-25T10:58:13;22.42;;;8.68;;
59922;SDS011;45778;51.142;3.732;2024-01-25T11:00:39;27.60;;;8.68;;
59922;SDS011;45778;51.142;3.732;2024-01-25T11:03:05;24.20;;;8.23;;
59922;SDS011;45778;51.142;3.732;2024-01-25T11:05:31;78.35;;;40.67;;
59922;SDS011;45778;51.142;3.732;2024-01-25T11:07:57;23.63;;;10.27;;
59922;SDS011;45778;51.142;3.732;2024-01-25T11:10:26;30.70;;;9.00;;
59922;SDS011;45778;51.142;3.732;2024-01-25T11:12:55;28.85;;;9.40;;
59922;SDS011;45778;51.142;3.732;2024-01-25T11:15:30;26.55;;;9.07;;
59922;SDS011;45778;51.142;3.732;2024-01-25T11:20:23;29.10;;;8.70;;
59922;SDS011;45778;51.142;3.732;2024-01-25T11:22:59;24.85;;;7.72;;
59922;SDS011;45778;51.142;3.732;2024-01-25T11:25:36;28.27;;;9.05;;
59922;SDS011;45778;51.142;3.732;2024-01-25T11:28:03;27.45;;;8.82;;
59922;SDS011;45778;51.142;3.732;2024-01-25T11:30:31;31.65;;;10.73;;
59922;SDS011;45778;51.142;3.732;2024-01-25T11:32:58;26.10;;;8.88;;
59922;SDS011;45778;51.142;3.732;2024-01-25T11:35:25;22.50;;;9.70;;
59922;SDS011;45778;51.142;3.732;2024-01-25T11:37:51;25.88;;;8.68;;
59922;SDS011;45778;51.142;3.732;2024-01-25T11:40:19;29.58;;;9.70;;
59922;SDS011;45778;51.142;3.732;2024-01-25T11:42:49;19.92;;;9.95;;
59922;SDS011;45778;51.142;3.732;2024-01-25T11:45:15;29.85;;;10.45;;
59922;SDS011;45778;51.142;3.732;2024-01-25T11:47:42;28.83;;;10.07;;
59922;SDS011;45778;51.142;3.732;2024-01-25T11:50:09;33.47;;;10.68;;
59922;SDS011;45778;51.142;3.732;2024-01-25T11:52:36;21.23;;;8.30;;
59922;SDS011;45778;51.142;3.732;2024-01-25T11:55:03;17.42;;;8.43;;
59922;SDS011;45778;51.142;3.732;2024-01-25T11:57:39;28.08;;;10.50;;
59922;SDS011;45778;51.142;3.732;2024-01-25T12:00:10;31.88;;;9.82;;
59922;SDS011;45778;51.142;3.732;2024-01-25T12:02:42;20.85;;;8.98;;
59922;SDS011;45778;51.142;3.732;2024-01-25T12:05:08;24.45;;;8.55;;
59922;SDS011;45778;51.142;3.732;2024-01-25T12:07:35;24.88;;;9.60;;
59922;SDS011;45778;51.142;3.732;2024-01-25T12:10:02;18.40;;;7.97;;
59922;SDS011;45778;51.142;3.732;2024-01-25T12:12:30;17.77;;;7.97;;
59922;SDS011;45778;51.142;3.732;2024-01-25T12:14:59;20.85;;;7.43;;
59922;SDS011;45778;51.142;3.732;2024-01-25T12:17:26;21.00;;;7.20;;
59922;SDS011;45778;51.142;3.732;2024-01-25T12:19:56;19.15;;;8.65;;
59922;SDS011;45778;51.142;3.732;2024-01-25T12:22:26;14.93;;;7.15;;
59922;SDS011;45778;51.142;3.732;2024-01-25T12:25:09;17.02;;;7.10;;
59922;SDS011;45778;51.142;3.732;2024-01-25T12:27:38;15.60;;;6.38;;
59922;SDS011;45778;51.142;3.732;2024-01-25T12:30:06;15.73;;;5.53;;
59922;SDS011;45778;51.142;3.732;2024-01-25T12:32:33;10.82;;;5.82;;
59922;SDS011;45778;51.142;3.732;2024-01-25T12:35:00;15.63;;;6.40;;
59922;SDS011;45778;51.142;3.732;2024-01-25T12:37:26;13.25;;;6.38;;
59922;SDS011;45778;51.142;3.732;2024-01-25T12:39:53;14.68;;;6.18;;
59922;SDS011;45778;51.142;3.732;2024-01-25T12:42:20;10.73;;;6.43;;
59922;SDS011;45778;51.142;3.732;2024-01-25T12:44:46;15.93;;;5.78;;
59922;SDS011;45778;51.142;3.732;2024-01-25T12:47:12;11.90;;;5.47;;
59922;SDS011;45778;51.142;3.732;2024-01-25T12:49:42;13.90;;;5.72;;
59922;SDS011;45778;51.142;3.732;2024-01-25T12:52:09;11.02;;;5.97;;
59922;SDS011;45778;51.142;3.732;2024-01-25T12:54:38;10.35;;;5.15;;
59922;SDS011;45778;51.142;3.732;2024-01-25T12:57:04;8.73;;;4.85;;
59922;SDS011;45778;51.142;3.732;2024-01-25T12:59:31;11.23;;;5.10;;
59922;SDS011;45778;51.142;3.732;2024-01-25T13:01:57;8.13;;;4.75;;
59922;SDS011;45778;51.142;3.732;2024-01-25T13:04:23;7.32;;;4.65;;
59922;SDS011;45778;51.142;3.732;2024-01-25T13:06:50;8.63;;;5.32;;
59922;SDS011;45778;51.142;3.732;2024-01-25T13:09:17;16.40;;;5.45;;
59922;SDS011;45778;51.142;3.732;2024-01-25T13:11:43;15.32;;;6.25;;
59922;SDS011;45778;51.142;3.732;2024-01-25T13:14:08;10.88;;;5.22;;
59922;SDS011;45778;51.142;3.732;2024-01-25T13:16:34;12.55;;;5.45;;
59922;SDS011;45778;51.142;3.732;2024-01-25T13:19:00;8.13;;;5.00;;
59922;SDS011;45778;51.142;3.732;2024-01-25T13:21:25;9.93;;;5.72;;
59922;SDS011;45778;51.142;3.732;2024-01-25T13:23:51;8.80;;;5.38;;
59922;SDS011;45778;51.142;3.732;2024-01-25T13:26:17;11.68;;;5.65;;
59922;SDS011;45778;51.142;3.732;2024-01-25T13:28:42;12.27;;;6.13;;
59922;SDS011;45778;51.142;3.732;2024-01-25T13:31:08;10.88;;;6.28;;
59922;SDS011;45778;51.142;3.732;2024-01-25T13:33:34;11.23;;;6.63;;
59922;SDS011;45778;51.142;3.732;2024-01-25T13:35:59;9.15;;;5.07;;
59922;SDS011;45778;51.142;3.732;2024-01-25T13:38:25;9.52;;;6.50;;
59922;SDS011;45778;51.142;3.732;2024-01-25T13:40:50;11.88;;;6.65;;
59922;SDS011;45778;51.142;3.732;2024-01-25T13:43:16;12.45;;;6.70;;
59922;SDS011;45778;51.142;3.732;2024-01-25T13:45:42;11.40;;;6.93;;
59922;SDS011;45778;51.142;3.732;2024-01-25T13:48:08;12.35;;;6.85;;
59922;SDS011;45778;51.142;3.732;2024-01-25T13:50:33;10.20;;;6.88;;
59922;SDS011;45778;51.142;3.732;2024-01-25T13:52:59;9.40;;;6.65;;
59922;SDS011;45778;51.142;3.732;2024-01-25T13:55:25;12.95;;;6.88;;
59922;SDS011;45778;51.142;3.732;2024-01-25T13:57:50;12.38;;;6.95;;
59922;SDS011;45778;51.142;3.732;2024-01-25T14:00:16;14.32;;;7.25;;
59922;SDS011;45778;51.142;3.732;2024-01-25T14:02:43;15.45;;;8.40;;
59922;SDS011;45778;51.142;3.732;2024-01-25T14:05:10;17.50;;;8.77;;
59922;SDS011;45778;51.142;3.732;2024-01-25T14:07:36;15.02;;;8.32;;
59922;SDS011;45778;51.142;3.732;2024-01-25T14:10:02;13.77;;;8.15;;
59922;SDS011;45778;51.142;3.732;2024-01-25T14:12:28;13.90;;;8.25;;
59922;SDS011;45778;51.142;3.732;2024-01-25T14:14:56;16.13;;;9.57;;
59922;SDS011;45778;51.142;3.732;2024-01-25T14:17:21;19.17;;;10.57;;
59922;SDS011;45778;51.142;3.732;2024-01-25T14:19:48;22.48;;;11.05;;
59922;SDS011;45778;51.142;3.732;2024-01-25T14:22:15;19.10;;;9.88;;
59922;SDS011;45778;51.142;3.732;2024-01-25T14:24:42;19.23;;;10.77;;
59922;SDS011;45778;51.142;3.732;2024-01-25T14:27:07;20.13;;;9.77;;
59922;SDS011;45778;51.142;3.732;2024-01-25T14:29:33;22.33;;;10.82;;